sensor_id;sensor_type;location;lat;lon;timestamp;pressure;altitude;pressure_sealevel;temperature;humidity
23733;BME280;12047;53.450;-2.286;2023-04-06T00:04:08;100944.06;;;16.91;100.00
23733;BME280;12047;53.450;-2.286;2023-04-06T00:09:10;100937.59;;;16.61;100.00
23733;BME280;12047;53.450;-2.286;2023-04-06T00:14:26;100933.81;;;16.48;100.00
23733;BME280;12047;53.450;-2.286;2023-04-06T00:25:05;100917.03;;;16.62;100.00
23733;BME280;12047;53.450;-2.286;2023-04-06T00:36:02;100909.00;;;16.62;100.00
23733;BME280;12047;53.450;-2.286;2023-04-06T00:52:44;100896.81;;;16.67;100.00
23733;BME280;12047;53.450;-2.286;2023-04-06T01:16:05;100854.41;;;17.18;100.00
23733;BME280;12047;53.450;-2.286;2023-04-06T01:21:06;100858.50;;;16.59;100.00
23733;BME280;12047;53.450;-2.286;2023-04-06T01:26:08;100854.75;;;16.84;100.00
23733;BME280;12047;53.450;-2.286;2023-04-06T01:31:12;100853.50;;;16.64;100.00
23733;BME280;12047;53.450;-2.286;2023-04-06T01:36:15;100845.34;;;16.57;100.00
23733;BME280;12047;53.450;-2.286;2023-04-06T01:41:16;100847.34;;;16.55;100.00
23733;BME280;12047;53.450;-2.286;2023-04-06T01:46:17;100838.13;;;16.66;100.00
23733;BME280;12047;53.450;-2.286;2023-04-06T01:51:17;100843.00;;;16.54;100.00
23733;BME280;12047;53.450;-2.286;2023-04-06T01:56:18;100838.44;;;16.71;100.00
23733;BME280;12047;53.450;-2.286;2023-04-06T02:01:18;100835.66;;;17.41;100.00
23733;BME280;12047;53.450;-2.286;2023-04-06T02:06:19;100830.59;;;16.70;100.00
23733;BME280;12047;53.450;-2.286;2023-04-06T02:11:19;100827.09;;;17.00;100.00
23733;BME280;12047;53.450;-2.286;2023-04-06T02:16:20;100823.53;;;16.29;100.00
23733;BME280;12047;53.450;-2.286;2023-04-06T02:21:21;100815.59;;;17.14;100.00
23733;BME280;12047;53.450;-2.286;2023-04-06T02:26:21;100817.94;;;16.86;100.00
23733;BME280;12047;53.450;-2.286;2023-04-06T02:31:22;100803.41;;;16.50;100.00
23733;BME280;12047;53.450;-2.286;2023-04-06T02:36:22;100802.00;;;16.70;100.00
23733;BME280;12047;53.450;-2.286;2023-04-06T02:41:23;100793.66;;;16.96;100.00
23733;BME280;12047;53.450;-2.286;2023-04-06T02:46:23;100789.53;;;17.08;100.00
23733;BME280;12047;53.450;-2.286;2023-04-06T02:51:24;100789.34;;;16.56;100.00
23733;BME280;12047;53.450;-2.286;2023-04-06T02:56:25;100773.13;;;16.57;100.00
23733;BME280;12047;53.450;-2.286;2023-04-06T03:01:26;100773.19;;;16.41;100.00
23733;BME280;12047;53.450;-2.286;2023-04-06T03:06:27;100771.97;;;16.83;100.00
23733;BME280;12047;53.450;-2.286;2023-04-06T03:11:27;100772.03;;;16.75;100.00
23733;BME280;12047;53.450;-2.286;2023-04-06T03:16:28;100771.34;;;17.04;100.00
23733;BME280;12047;53.450;-2.286;2023-04-06T03:21:28;100764.06;;;16.89;100.00
23733;BME280;12047;53.450;-2.286;2023-04-06T03:26:29;100761.03;;;16.92;100.00
23733;BME280;12047;53.450;-2.286;2023-04-06T03:31:29;100749.19;;;16.87;100.00
23733;BME280;12047;53.450;-2.286;2023-04-06T03:36:30;100745.81;;;16.93;100.00
23733;BME280;12047;53.450;-2.286;2023-04-06T03:41:31;100733.31;;;16.31;100.00
23733;BME280;12047;53.450;-2.286;2023-04-06T03:46:31;100729.75;;;16.93;100.00
23733;BME280;12047;53.450;-2.286;2023-04-06T03:51:32;100724.28;;;16.32;100.00
23733;BME280;12047;53.450;-2.286;2023-04-06T03:56:32;100725.59;;;16.90;100.00
23733;BME280;12047;53.450;-2.286;2023-04-06T04:01:33;100724.34;;;17.01;100.00
23733;BME280;12047;53.450;-2.286;2023-04-06T04:06:33;100724.22;;;16.72;100.00
23733;BME280;12047;53.450;-2.286;2023-04-06T04:11:36;100731.69;;;17.07;100.00
23733;BME280;12047;53.450;-2.286;2023-04-06T04:16:36;100725.28;;;16.31;100.00
23733;BME280;12047;53.450;-2.286;2023-04-06T04:21:44;100727.75;;;16.72;100.00
23733;BME280;12047;53.450;-2.286;2023-04-06T04:26:45;100732.28;;;16.63;100.00
23733;BME280;12047;53.450;-2.286;2023-04-06T04:31:46;100735.59;;;16.34;100.00
23733;BME280;12047;53.450;-2.286;2023-04-06T04:36:46;100738.78;;;15.99;100.00
23733;BME280;12047;53.450;-2.286;2023-04-06T04:41:48;100742.13;;;15.93;100.00
23733;BME280;12047;53.450;-2.286;2023-04-06T04:47:02;100729.50;;;16.18;100.00
23733;BME280;12047;53.450;-2.286;2023-04-06T04:52:07;100733.03;;;17.03;100.00
23733;BME280;12047;53.450;-2.286;2023-04-06T04:57:07;100719.06;;;16.62;100.00
23733;BME280;12047;53.450;-2.286;2023-04-06T05:02:08;100730.34;;;16.49;100.00
23733;BME280;12047;53.450;-2.286;2023-04-06T05:07:09;100729.94;;;16.60;100.00
23733;BME280;12047;53.450;-2.286;2023-04-06T05:12:10;100729.38;;;16.42;100.00
23733;BME280;12047;53.450;-2.286;2023-04-06T05:17:11;100733.94;;;16.33;100.00
23733;BME280;12047;53.450;-2.286;2023-04-06T05:22:11;100744.19;;;16.22;100.00
23733;BME280;12047;53.450;-2.286;2023-04-06T05:27:17;100745.34;;;16.27;100.00
23733;BME280;12047;53.450;-2.286;2023-04-06T05:32:21;100751.44;;;16.05;100.00
23733;BME280;12047;53.450;-2.286;2023-04-06T05:37:25;100741.13;;;16.72;100.00
23733;BME280;12047;53.450;-2.286;2023-04-06T05:42:38;100749.28;;;16.40;100.00
23733;BME280;12047;53.450;-2.286;2023-04-06T05:47:39;100757.97;;;16.42;100.00
23733;BME280;12047;53.450;-2.286;2023-04-06T05:52:41;100771.94;;;16.13;100.00
23733;BME280;12047;53.450;-2.286;2023-04-06T05:57:46;100792.16;;;16.15;100.00
23733;BME280;12047;53.450;-2.286;2023-04-06T06:02:46;100792.44;;;15.49;100.00
23733;BME280;12047;53.450;-2.286;2023-04-06T06:07:47;100803.97;;;15.33;100.00
23733;BME280;12047;53.450;-2.286;2023-04-06T06:12:48;100819.47;;;15.46;100.00
23733;BME280;12047;53.450;-2.286;2023-04-06T06:17:49;100818.63;;;15.29;100.00
23733;BME280;12047;53.450;-2.286;2023-04-06T06:22:49;100828.97;;;15.24;100.00
23733;BME280;12047;53.450;-2.286;2023-04-06T06:27:50;100841.63;;;15.14;100.00
23733;BME280;12047;53.450;-2.286;2023-04-06T06:32:51;100836.66;;;15.43;100.00
23733;BME280;12047;53.450;-2.286;2023-04-06T06:37:53;100840.50;;;15.41;100.00
23733;BME280;12047;53.450;-2.286;2023-04-06T06:48:56;100847.00;;;15.38;100.00
23733;BME280;12047;53.450;-2.286;2023-04-06T06:54:01;100857.25;;;15.59;100.00
23733;BME280;12047;53.450;-2.286;2023-04-06T06:59:01;100863.03;;;16.03;100.00
23733;BME280;12047;53.450;-2.286;2023-04-06T07:04:02;100866.38;;;15.97;100.00
23733;BME280;12047;53.450;-2.286;2023-04-06T07:09:03;100866.41;;;15.81;100.00
23733;BME280;12047;53.450;-2.286;2023-04-06T07:14:03;100878.78;;;15.82;100.00
23733;BME280;12047;53.450;-2.286;2023-04-06T07:19:03;100876.25;;;15.56;100.00
23733;BME280;12047;53.450;-2.286;2023-04-06T07:24:04;100879.41;;;16.00;100.00
23733;BME280;12047;53.450;-2.286;2023-04-06T07:29:05;100884.56;;;16.18;100.00
23733;BME280;12047;53.450;-2.286;2023-04-06T07:34:08;100886.22;;;17.13;100.00
23733;BME280;12047;53.450;-2.286;2023-04-06T07:39:08;100875.91;;;17.56;100.00
23733;BME280;12047;53.450;-2.286;2023-04-06T07:44:09;100882.41;;;17.08;100.00
23733;BME280;12047;53.450;-2.286;2023-04-06T07:49:10;100886.63;;;17.79;100.00
23733;BME280;12047;53.450;-2.286;2023-04-06T07:54:10;100885.84;;;17.47;100.00
23733;BME280;12047;53.450;-2.286;2023-04-06T07:59:11;100890.88;;;16.88;100.00
23733;BME280;12047;53.450;-2.286;2023-04-06T08:04:11;100887.88;;;17.14;100.00
23733;BME280;12047;53.450;-2.286;2023-04-06T08:09:12;100896.81;;;17.07;100.00
23733;BME280;12047;53.450;-2.286;2023-04-06T08:14:12;100905.78;;;16.11;100.00
23733;BME280;12047;53.450;-2.286;2023-04-06T08:19:13;100895.28;;;16.81;100.00
23733;BME280;12047;53.450;-2.286;2023-04-06T08:24:14;100899.63;;;16.82;100.00
23733;BME280;12047;53.450;-2.286;2023-04-06T08:29:16;100891.84;;;17.26;100.00
23733;BME280;12047;53.450;-2.286;2023-04-06T08:34:16;100898.06;;;17.19;100.00
23733;BME280;12047;53.450;-2.286;2023-04-06T08:39:17;100897.72;;;16.36;100.00
23733;BME280;12047;53.450;-2.286;2023-04-06T08:44:24;100896.19;;;16.96;100.00
23733;BME280;12047;53.450;-2.286;2023-04-06T08:49:28;100906.03;;;17.04;100.00
23733;BME280;12047;53.450;-2.286;2023-04-06T08:54:28;100899.09;;;17.18;100.00
23733;BME280;12047;53.450;-2.286;2023-04-06T08:59:29;100906.16;;;18.54;100.00
23733;BME280;12047;53.450;-2.286;2023-04-06T09:04:33;100913.72;;;18.21;100.00
23733;BME280;12047;53.450;-2.286;2023-04-06T09:09:33;100916.78;;;17.81;100.00
23733;BME280;12047;53.450;-2.286;2023-04-06T09:14:36;100926.59;;;18.41;100.00
23733;BME280;12047;53.450;-2.286;2023-04-06T09:19:47;100927.53;;;17.95;100.00
23733;BME280;12047;53.450;-2.286;2023-04-06T09:24:49;100940.72;;;18.34;100.00
23733;BME280;12047;53.450;-2.286;2023-04-06T09:29:50;100926.28;;;17.07;100.00
23733;BME280;12047;53.450;-2.286;2023-04-06T09:34:50;100930.88;;;18.12;100.00
23733;BME280;12047;53.450;-2.286;2023-04-06T09:40:02;100940.03;;;18.99;100.00
23733;BME280;12047;53.450;-2.286;2023-04-06T09:45:05;100932.63;;;19.74;100.00
23733;BME280;12047;53.450;-2.286;2023-04-06T09:50:07;100938.84;;;18.87;99.77
23733;BME280;12047;53.450;-2.286;2023-04-06T09:55:09;100945.00;;;18.44;100.00
23733;BME280;12047;53.450;-2.286;2023-04-06T10:00:11;100934.69;;;20.21;100.00
23733;BME280;12047;53.450;-2.286;2023-04-06T10:10:24;100944.03;;;18.74;90.59
23733;BME280;12047;53.450;-2.286;2023-04-06T10:15:24;100955.41;;;19.42;92.71
23733;BME280;12047;53.450;-2.286;2023-04-06T10:21:00;100968.75;;;19.50;94.15
23733;BME280;12047;53.450;-2.286;2023-04-06T10:26:03;100959.19;;;19.83;92.64
23733;BME280;12047;53.450;-2.286;2023-04-06T10:31:07;100959.63;;;19.29;91.73
23733;BME280;12047;53.450;-2.286;2023-04-06T10:36:11;100961.03;;;19.25;94.87
23733;BME280;12047;53.450;-2.286;2023-04-06T10:41:12;100970.06;;;17.98;90.38
23733;BME280;12047;53.450;-2.286;2023-04-06T10:46:28;100975.41;;;18.88;92.03
23733;BME280;12047;53.450;-2.286;2023-04-06T10:51:29;100980.50;;;19.63;92.80
23733;BME280;12047;53.450;-2.286;2023-04-06T10:56:32;100994.97;;;18.97;91.63
23733;BME280;12047;53.450;-2.286;2023-04-06T11:01:34;100999.88;;;18.41;95.81
23733;BME280;12047;53.450;-2.286;2023-04-06T11:06:35;101005.28;;;17.95;98.08
23733;BME280;12047;53.450;-2.286;2023-04-06T11:11:38;101006.53;;;18.45;94.77
23733;BME280;12047;53.450;-2.286;2023-04-06T11:16:39;101008.19;;;18.69;92.51
23733;BME280;12047;53.450;-2.286;2023-04-06T11:21:44;101011.19;;;17.91;92.29
23733;BME280;12047;53.450;-2.286;2023-04-06T11:26:53;101016.88;;;17.65;95.37
23733;BME280;12047;53.450;-2.286;2023-04-06T11:32:04;101024.63;;;17.52;100.00
23733;BME280;12047;53.450;-2.286;2023-04-06T11:37:10;101035.09;;;17.61;100.00
23733;BME280;12047;53.450;-2.286;2023-04-06T11:42:10;101029.06;;;17.98;97.84
23733;BME280;12047;53.450;-2.286;2023-04-06T11:47:12;101037.09;;;18.96;95.76
23733;BME280;12047;53.450;-2.286;2023-04-06T11:52:31;101029.84;;;18.45;94.92
23733;BME280;12047;53.450;-2.286;2023-04-06T11:57:32;101033.88;;;18.03;91.13
23733;BME280;12047;53.450;-2.286;2023-04-06T12:02:32;101033.84;;;18.49;90.66
23733;BME280;12047;53.450;-2.286;2023-04-06T12:07:33;101037.06;;;18.67;93.04
23733;BME280;12047;53.450;-2.286;2023-04-06T12:12:33;101041.88;;;18.72;91.98
23733;BME280;12047;53.450;-2.286;2023-04-06T12:17:34;101047.09;;;19.17;89.66
23733;BME280;12047;53.450;-2.286;2023-04-06T12:22:34;101034.94;;;18.17;89.91
23733;BME280;12047;53.450;-2.286;2023-04-06T12:27:36;101063.06;;;18.44;87.91
23733;BME280;12047;53.450;-2.286;2023-04-06T12:32:36;101054.94;;;17.83;88.95
23733;BME280;12047;53.450;-2.286;2023-04-06T12:37:37;101062.66;;;18.55;88.85
23733;BME280;12047;53.450;-2.286;2023-04-06T12:42:38;101061.16;;;18.52;88.74
23733;BME280;12047;53.450;-2.286;2023-04-06T12:47:40;101056.13;;;18.72;88.56
23733;BME280;12047;53.450;-2.286;2023-04-06T12:52:41;101059.47;;;17.83;87.25
23733;BME280;12047;53.450;-2.286;2023-04-06T12:57:42;101069.81;;;18.40;87.12
23733;BME280;12047;53.450;-2.286;2023-04-06T13:02:43;101073.50;;;18.39;85.94
23733;BME280;12047;53.450;-2.286;2023-04-06T13:07:46;101084.13;;;18.92;87.01
23733;BME280;12047;53.450;-2.286;2023-04-06T13:12:47;101081.63;;;18.91;86.80
23733;BME280;12047;53.450;-2.286;2023-04-06T13:17:48;101086.69;;;18.02;87.37
23733;BME280;12047;53.450;-2.286;2023-04-06T13:22:48;101103.84;;;18.62;86.84
23733;BME280;12047;53.450;-2.286;2023-04-06T13:27:48;101098.66;;;18.38;85.13
23733;BME280;12047;53.450;-2.286;2023-04-06T13:32:50;101088.91;;;18.82;86.01
23733;BME280;12047;53.450;-2.286;2023-04-06T13:37:50;101111.00;;;18.47;85.96
23733;BME280;12047;53.450;-2.286;2023-04-06T13:42:52;101110.25;;;18.98;82.16
23733;BME280;12047;53.450;-2.286;2023-04-06T13:47:52;101115.50;;;18.77;81.74
23733;BME280;12047;53.450;-2.286;2023-04-06T13:52:53;101114.50;;;18.93;80.13
23733;BME280;12047;53.450;-2.286;2023-04-06T13:57:54;101108.41;;;18.99;80.76
23733;BME280;12047;53.450;-2.286;2023-04-06T14:02:55;101116.69;;;18.89;80.05
23733;BME280;12047;53.450;-2.286;2023-04-06T14:07:55;101128.53;;;18.34;79.35
23733;BME280;12047;53.450;-2.286;2023-04-06T14:12:56;101123.91;;;18.74;80.25
23733;BME280;12047;53.450;-2.286;2023-04-06T14:17:58;101126.38;;;17.60;80.03
23733;BME280;12047;53.450;-2.286;2023-04-06T14:23:00;101124.44;;;17.93;81.91
23733;BME280;12047;53.450;-2.286;2023-04-06T14:28:01;101132.13;;;17.96;79.96
23733;BME280;12047;53.450;-2.286;2023-04-06T14:33:02;101139.47;;;18.02;78.93
23733;BME280;12047;53.450;-2.286;2023-04-06T14:38:02;101139.03;;;18.90;82.15
23733;BME280;12047;53.450;-2.286;2023-04-06T14:43:03;101143.09;;;18.63;84.88
23733;BME280;12047;53.450;-2.286;2023-04-06T14:48:04;101150.53;;;18.30;78.18
23733;BME280;12047;53.450;-2.286;2023-04-06T14:53:06;101147.56;;;18.48;78.83
23733;BME280;12047;53.450;-2.286;2023-04-06T14:58:06;101145.84;;;18.55;80.45
23733;BME280;12047;53.450;-2.286;2023-04-06T15:03:07;101148.66;;;19.51;77.42
23733;BME280;12047;53.450;-2.286;2023-04-06T15:08:07;101147.25;;;18.43;73.33
23733;BME280;12047;53.450;-2.286;2023-04-06T15:13:11;101157.59;;;18.54;72.61
23733;BME280;12047;53.450;-2.286;2023-04-06T15:18:12;101152.97;;;18.85;73.88
23733;BME280;12047;53.450;-2.286;2023-04-06T15:23:13;101160.88;;;18.10;77.43
23733;BME280;12047;53.450;-2.286;2023-04-06T15:28:13;101162.75;;;18.32;77.54
23733;BME280;12047;53.450;-2.286;2023-04-06T15:33:14;101163.22;;;18.59;78.87
23733;BME280;12047;53.450;-2.286;2023-04-06T15:38:14;101169.09;;;18.85;77.41
23733;BME280;12047;53.450;-2.286;2023-04-06T15:43:15;101161.09;;;19.00;80.71
23733;BME280;12047;53.450;-2.286;2023-04-06T15:48:16;101171.91;;;19.07;77.91
23733;BME280;12047;53.450;-2.286;2023-04-06T15:53:16;101184.16;;;18.10;73.41
23733;BME280;12047;53.450;-2.286;2023-04-06T15:58:19;101191.88;;;17.57;76.53
23733;BME280;12047;53.450;-2.286;2023-04-06T16:03:20;101204.22;;;17.83;79.47
23733;BME280;12047;53.450;-2.286;2023-04-06T16:08:20;101216.28;;;17.87;80.34
23733;BME280;12047;53.450;-2.286;2023-04-06T16:13:21;101219.97;;;18.56;79.62
23733;BME280;12047;53.450;-2.286;2023-04-06T16:18:22;101226.59;;;18.37;78.39
23733;BME280;12047;53.450;-2.286;2023-04-06T16:23:22;101230.47;;;17.24;80.30
23733;BME280;12047;53.450;-2.286;2023-04-06T16:28:23;101236.75;;;17.80;82.25
23733;BME280;12047;53.450;-2.286;2023-04-06T16:33:24;101246.19;;;17.11;81.93
23733;BME280;12047;53.450;-2.286;2023-04-06T16:38:25;101240.34;;;17.23;82.38
23733;BME280;12047;53.450;-2.286;2023-04-06T16:43:31;101248.81;;;17.76;81.21
23733;BME280;12047;53.450;-2.286;2023-04-06T16:48:34;101264.59;;;17.46;81.80
23733;BME280;12047;53.450;-2.286;2023-04-06T16:53:36;101271.25;;;16.85;82.79
23733;BME280;12047;53.450;-2.286;2023-04-06T16:58:37;101269.63;;;17.17;83.68
23733;BME280;12047;53.450;-2.286;2023-04-06T17:03:38;101275.13;;;16.91;84.42
23733;BME280;12047;53.450;-2.286;2023-04-06T17:08:40;101264.25;;;17.33;84.07
23733;BME280;12047;53.450;-2.286;2023-04-06T17:13:40;101271.78;;;17.46;83.47
23733;BME280;12047;53.450;-2.286;2023-04-06T17:18:42;101275.31;;;17.22;84.35
23733;BME280;12047;53.450;-2.286;2023-04-06T17:23:43;101278.47;;;16.93;86.75
23733;BME280;12047;53.450;-2.286;2023-04-06T17:28:44;101287.69;;;16.82;87.54
23733;BME280;12047;53.450;-2.286;2023-04-06T17:33:44;101298.69;;;16.71;88.26
23733;BME280;12047;53.450;-2.286;2023-04-06T17:38:46;101307.56;;;16.29;87.08
23733;BME280;12047;53.450;-2.286;2023-04-06T17:43:47;101309.22;;;15.96;87.38
23733;BME280;12047;53.450;-2.286;2023-04-06T17:48:47;101317.69;;;15.92;87.78
23733;BME280;12047;53.450;-2.286;2023-04-06T17:53:48;101328.22;;;16.19;87.82
23733;BME280;12047;53.450;-2.286;2023-04-06T17:58:49;101330.22;;;15.91;88.04
23733;BME280;12047;53.450;-2.286;2023-04-06T18:03:49;101343.88;;;16.06;89.44
23733;BME280;12047;53.450;-2.286;2023-04-06T18:08:50;101337.09;;;15.50;91.81
23733;BME280;12047;53.450;-2.286;2023-04-06T18:13:50;101345.78;;;15.96;90.59
23733;BME280;12047;53.450;-2.286;2023-04-06T18:18:51;101357.75;;;15.48;92.73
23733;BME280;12047;53.450;-2.286;2023-04-06T18:23:57;101353.66;;;15.01;94.71
23733;BME280;12047;53.450;-2.286;2023-04-06T18:28:58;101373.41;;;15.61;95.19
23733;BME280;12047;53.450;-2.286;2023-04-06T18:33:58;101375.44;;;15.85;95.28
23733;BME280;12047;53.450;-2.286;2023-04-06T18:38:59;101382.78;;;15.83;95.97
23733;BME280;12047;53.450;-2.286;2023-04-06T18:43:59;101381.94;;;15.11;99.14
23733;BME280;12047;53.450;-2.286;2023-04-06T18:49:00;101393.25;;;15.41;100.00
23733;BME280;12047;53.450;-2.286;2023-04-06T18:54:02;101400.56;;;15.39;100.00
23733;BME280;12047;53.450;-2.286;2023-04-06T18:59:02;101402.63;;;15.27;100.00
23733;BME280;12047;53.450;-2.286;2023-04-06T19:04:03;101409.50;;;16.09;98.45
23733;BME280;12047;53.450;-2.286;2023-04-06T19:09:04;101423.91;;;16.08;98.28
23733;BME280;12047;53.450;-2.286;2023-04-06T19:14:05;101420.00;;;15.58;100.00
23733;BME280;12047;53.450;-2.286;2023-04-06T19:19:05;101421.09;;;15.38;100.00
23733;BME280;12047;53.450;-2.286;2023-04-06T19:24:10;101435.53;;;15.45;100.00
23733;BME280;12047;53.450;-2.286;2023-04-06T19:29:11;101448.19;;;15.25;100.00
23733;BME280;12047;53.450;-2.286;2023-04-06T19:34:18;101451.53;;;15.27;100.00
23733;BME280;12047;53.450;-2.286;2023-04-06T19:39:19;101454.81;;;14.94;100.00
23733;BME280;12047;53.450;-2.286;2023-04-06T19:44:20;101468.16;;;15.39;100.00
23733;BME280;12047;53.450;-2.286;2023-04-06T19:49:23;101467.69;;;15.89;100.00
23733;BME280;12047;53.450;-2.286;2023-04-06T19:54:30;101471.47;;;15.06;100.00
23733;BME280;12047;53.450;-2.286;2023-04-06T19:59:34;101488.38;;;14.59;100.00
23733;BME280;12047;53.450;-2.286;2023-04-06T20:04:35;101496.03;;;14.82;100.00
23733;BME280;12047;53.450;-2.286;2023-04-06T20:09:36;101490.78;;;14.90;100.00
23733;BME280;12047;53.450;-2.286;2023-04-06T20:14:36;101506.44;;;14.75;100.00
23733;BME280;12047;53.450;-2.286;2023-04-06T20:19:57;101515.34;;;14.93;100.00
23733;BME280;12047;53.450;-2.286;2023-04-06T20:24:58;101506.59;;;14.74;100.00
23733;BME280;12047;53.450;-2.286;2023-04-06T20:30:20;101509.69;;;14.69;100.00
23733;BME280;12047;53.450;-2.286;2023-04-06T20:35:37;101518.69;;;14.39;100.00
23733;BME280;12047;53.450;-2.286;2023-04-06T20:40:38;101529.38;;;14.20;100.00
23733;BME280;12047;53.450;-2.286;2023-04-06T20:45:51;101517.53;;;14.71;100.00
23733;BME280;12047;53.450;-2.286;2023-04-06T20:50:55;101526.78;;;14.76;100.00
23733;BME280;12047;53.450;-2.286;2023-04-06T20:55:59;101533.34;;;14.06;100.00
23733;BME280;12047;53.450;-2.286;2023-04-06T21:01:34;101531.25;;;14.85;100.00
23733;BME280;12047;53.450;-2.286;2023-04-06T21:12:34;101547.16;;;14.77;100.00
23733;BME280;12047;53.450;-2.286;2023-04-06T21:17:37;101547.66;;;15.27;100.00
23733;BME280;12047;53.450;-2.286;2023-04-06T21:22:37;101537.47;;;14.76;100.00
23733;BME280;12047;53.450;-2.286;2023-04-06T21:27:39;101548.91;;;14.30;100.00
23733;BME280;12047;53.450;-2.286;2023-04-06T21:32:39;101540.34;;;14.26;100.00
23733;BME280;12047;53.450;-2.286;2023-04-06T21:37:43;101539.50;;;13.97;100.00
23733;BME280;12047;53.450;-2.286;2023-04-06T21:42:43;101548.88;;;14.40;100.00
23733;BME280;12047;53.450;-2.286;2023-04-06T21:47:44;101537.09;;;13.94;100.00
23733;BME280;12047;53.450;-2.286;2023-04-06T21:53:05;101539.22;;;14.00;100.00
23733;BME280;12047;53.450;-2.286;2023-04-06T21:58:05;101546.25;;;14.01;100.00
23733;BME280;12047;53.450;-2.286;2023-04-06T22:03:09;101546.09;;;14.12;100.00
23733;BME280;12047;53.450;-2.286;2023-04-06T22:08:13;101555.34;;;14.18;100.00
23733;BME280;12047;53.450;-2.286;2023-04-06T22:13:16;101560.66;;;13.89;100.00
23733;BME280;12047;53.450;-2.286;2023-04-06T22:18:17;101558.81;;;13.70;100.00
23733;BME280;12047;53.450;-2.286;2023-04-06T22:23:19;101569.06;;;13.75;100.00
23733;BME280;12047;53.450;-2.286;2023-04-06T22:28:23;101576.38;;;14.21;100.00
23733;BME280;12047;53.450;-2.286;2023-04-06T22:33:24;101582.00;;;14.27;100.00
23733;BME280;12047;53.450;-2.286;2023-04-06T22:38:25;101580.31;;;14.65;100.00
23733;BME280;12047;53.450;-2.286;2023-04-06T22:43:26;101592.25;;;14.32;100.00
23733;BME280;12047;53.450;-2.286;2023-04-06T22:48:26;101602.38;;;14.57;100.00
23733;BME280;12047;53.450;-2.286;2023-04-06T22:53:27;101600.31;;;14.88;100.00
23733;BME280;12047;53.450;-2.286;2023-04-06T22:58:27;101604.75;;;14.32;100.00
23733;BME280;12047;53.450;-2.286;2023-04-06T23:03:29;101613.09;;;13.88;100.00
23733;BME280;12047;53.450;-2.286;2023-04-06T23:08:32;101611.28;;;13.79;100.00
23733;BME280;12047;53.450;-2.286;2023-04-06T23:13:33;101623.38;;;14.12;100.00
23733;BME280;12047;53.450;-2.286;2023-04-06T23:18:33;101626.78;;;14.53;100.00
23733;BME280;12047;53.450;-2.286;2023-04-06T23:23:34;101633.16;;;13.92;100.00
23733;BME280;12047;53.450;-2.286;2023-04-06T23:28:34;101624.09;;;14.05;100.00
23733;BME280;12047;53.450;-2.286;2023-04-06T23:33:35;101625.38;;;14.10;100.00
23733;BME280;12047;53.450;-2.286;2023-04-06T23:38:36;101635.03;;;13.61;100.00
23733;BME280;12047;53.450;-2.286;2023-04-06T23:43:36;101636.69;;;14.03;100.00
23733;BME280;12047;53.450;-2.286;2023-04-06T23:48:37;101652.44;;;13.66;100.00
23733;BME280;12047;53.450;-2.286;2023-04-06T23:53:40;101659.97;;;13.51;100.00
23733;BME280;12047;53.450;-2.286;2023-04-06T23:58:52;101654.63;;;13.51;100.00
